.
WxDataArchive / Data Records for 2011-08-02
2011-08-01 August 2011 2011-08-03

Data Records for Tuesday, 02 August 2011

Time	Temp	Chill	HIndex	Humid	Dewpt	 Wind 	HiWind	WindDir	Rain 	Barom 
-----	----	-----	------	-----	-----	------	------	-------	-----	----- 
00:00	76.8	76.8	78.2	81	70.5	0	0	---	0.00	29.920 
00:05	76.7	76.7	78.0	81	70.4	0	0	---	0.00	29.920 
00:10	76.3	76.3	77.3	82	70.4	0	0	---	0.00	29.920 
00:15	76.1	76.1	77.0	82	70.2	0	0	---	0.00	29.918 
00:20	76.0	76.0	76.7	83	70.4	0	0	---	0.00	29.918 
00:25	75.8	75.8	76.4	83	70.3	0	0	---	0.00	29.918 
00:30	75.6	75.6	76.0	84	70.4	0	0	---	0.00	29.923 
00:35	75.4	75.4	75.7	84	70.2	0	0	---	0.00	29.923 
00:40	75.3	75.3	75.5	84	70.1	0	0	---	0.00	29.923 
00:45	75.1	75.1	75.0	85	70.3	0	0	---	0.00	29.925 
00:50	75.1	75.1	75.0	85	70.3	0	0	---	0.00	29.925 
00:55	74.9	74.9	74.9	86	70.4	0	0	---	0.00	29.925 
01:00	74.7	74.7	74.7	86	70.2	0	0	---	0.00	29.931 
01:05	74.7	74.7	74.7	86	70.2	0	0	---	0.00	29.931 
01:10	74.6	74.6	74.6	87	70.5	0	0	---	0.00	29.931 
01:15	74.6	74.6	74.6	87	70.5	0	0	---	0.00	29.927 
01:20	74.6	74.6	74.6	87	70.5	0	0	---	0.00	29.927 
01:25	74.7	74.7	74.7	88	70.9	0	0	---	0.00	29.927 
01:30	74.7	74.7	74.7	88	70.9	0	0	---	0.00	29.922 
01:35	74.9	74.9	74.9	88	71.1	0	0	---	0.00	29.922 
01:40	75.3	75.3	75.1	87	71.2	0	0	---	0.00	29.922 
01:45	75.4	75.4	75.3	87	71.2	0	0	---	0.00	29.921 
01:50	75.4	75.4	75.3	87	71.2	0	0	---	0.00	29.921 
01:55	75.6	75.6	75.8	86	71.1	0	0	---	0.00	29.921 
02:00	75.8	75.8	76.1	86	71.3	0	0	---	0.00	29.918 
02:05	76.0	76.0	76.6	85	71.2	0	0	---	0.00	29.918 
02:10	76.0	76.0	76.6	85	71.2	0	0	---	0.00	29.918 
02:15	76.1	76.1	76.7	85	71.2	0	0	---	0.00	29.915 
02:20	76.1	76.1	76.7	85	71.2	0	0	---	0.00	29.915 
02:25	76.1	76.1	76.7	85	71.2	0	0	---	0.00	29.915 
02:30	76.3	76.3	77.1	85	71.4	0	0	---	0.00	29.911 
02:35	76.3	76.3	77.2	84	71.1	0	0	---	0.00	29.911 
02:40	76.3	76.3	77.2	84	71.1	0	0	---	0.00	29.911 
02:45	76.3	76.3	77.2	84	71.1	0	0	---	0.00	29.911 
02:50	76.3	76.3	77.2	84	71.1	0	0	---	0.00	29.911 
02:55	76.3	76.3	77.2	84	71.1	0	0	---	0.00	29.911 
03:00	76.3	76.3	77.2	84	71.1	0	0	---	0.00	29.904 
03:05	76.3	76.3	77.2	84	71.1	0	0	---	0.00	29.904 
03:10	76.1	76.1	76.8	84	70.9	0	0	---	0.00	29.904 
03:15	76.1	76.1	76.7	85	71.2	0	0	---	0.00	29.903 
03:20	76.1	76.1	76.7	85	71.2	0	0	---	0.00	29.903 
03:25	76.1	76.1	76.7	85	71.2	0	0	---	0.00	29.903 
03:30	76.1	76.1	76.7	85	71.2	0	0	---	0.00	29.901 
03:35	76.1	76.1	76.7	85	71.2	0	0	---	0.00	29.901 
03:40	76.1	76.1	76.7	85	71.2	0	0	---	0.00	29.901 
03:45	76.0	76.0	76.6	85	71.2	0	0	---	0.00	29.896 
03:50	76.0	76.0	76.6	85	71.2	0	0	---	0.00	29.896 
03:55	76.0	76.0	76.6	85	71.2	0	0	---	0.00	29.896 
04:00	75.8	75.8	76.2	85	71.0	0	0	---	0.00	29.886 
04:05	75.8	75.8	76.2	85	71.0	0	0	---	0.00	29.886 
04:10	75.6	75.6	75.9	85	70.8	0	0	---	0.00	29.886 
04:15	75.6	75.6	75.8	86	71.1	0	0	---	0.00	29.886 
04:20	75.4	75.4	75.4	86	70.9	0	0	---	0.00	29.886 
04:25	75.4	75.4	75.4	86	70.9	0	0	---	0.00	29.886 
04:30	75.3	75.3	75.2	86	70.8	0	0	---	0.00	29.884 
04:35	75.3	75.3	75.1	87	71.2	0	0	---	0.00	29.884 
04:40	75.3	75.3	75.1	87	71.2	0	0	---	0.00	29.884 
04:45	75.1	75.1	74.7	87	71.0	0	0	---	0.00	29.881 
04:50	75.1	75.1	74.7	87	71.0	0	0	---	0.00	29.881 
04:55	74.9	74.9	74.9	87	70.8	0	0	---	0.00	29.881 
05:00	74.9	74.9	74.9	88	71.1	0	0	---	0.00	29.883 
05:05	74.7	74.7	74.7	88	70.9	0	0	---	0.00	29.883 
05:10	74.7	74.7	74.7	88	70.9	0	0	---	0.00	29.883 
05:15	74.6	74.6	74.6	88	70.8	0	0	---	0.00	29.887 
05:20	74.4	74.4	74.4	88	70.6	0	0	---	0.00	29.887 
05:25	74.4	74.4	74.4	88	70.6	0	0	---	0.00	29.887 
05:30	74.2	74.2	74.2	89	70.7	0	0	---	0.00	29.888 
05:35	74.2	74.2	74.2	89	70.7	0	0	---	0.00	29.888 
05:40	74.0	74.0	74.0	89	70.5	0	0	---	0.00	29.888 
05:45	74.0	74.0	74.0	89	70.5	0	0	---	0.00	29.896 
05:50	73.9	73.9	73.9	89	70.4	0	0	---	0.00	29.896 
05:55	73.9	73.9	73.9	89	70.4	0	0	---	0.00	29.896 
06:00	73.9	73.9	73.9	90	70.8	0	0	---	0.00	29.901 
06:05	73.7	73.7	73.7	90	70.6	0	0	---	0.00	29.901 
06:10	73.7	73.7	73.7	90	70.6	0	0	---	0.00	29.901 
06:15	73.7	73.7	73.7	90	70.6	0	0	---	0.00	29.900 
06:20	73.7	73.7	73.7	91	70.9	0	0	---	0.00	29.900 
06:25	73.7	73.7	73.7	91	70.9	0	0	---	0.00	29.900 
06:30	73.7	73.7	73.7	91	70.9	0	0	---	0.00	29.902 
06:35	73.9	73.9	73.9	91	71.1	0	0	---	0.00	29.902 
06:40	73.9	73.9	73.9	91	71.1	0	0	---	0.00	29.902 
06:45	73.9	73.9	73.9	91	71.1	0	0	---	0.00	29.901 
06:50	73.9	73.9	73.9	91	71.1	0	0	---	0.00	29.901 
06:55	73.9	73.9	73.9	91	71.1	0	0	---	0.00	29.901 
07:00	73.9	73.9	73.9	91	71.1	0	0	---	0.00	29.897 
07:05	73.9	73.9	73.9	91	71.1	0	0	---	0.00	29.897 
07:10	73.9	73.9	73.9	91	71.1	0	0	---	0.00	29.897 
07:15	74.0	74.0	74.0	91	71.2	0	0	---	0.00	29.894 
07:20	74.0	74.0	74.0	91	71.2	0	0	---	0.00	29.894 
07:25	74.2	74.2	74.2	91	71.4	0	0	---	0.00	29.894 
07:30	74.2	74.2	74.2	91	71.4	0	0	---	0.00	29.902 
07:35	74.4	74.4	74.4	91	71.6	0	0	---	0.00	29.902 
07:40	74.6	74.6	74.6	91	71.8	0	0	---	0.00	29.902 
07:45	74.7	74.7	74.7	91	71.9	0	0	---	0.00	29.901 
07:50	74.9	74.9	74.9	91	72.1	0	0	---	0.00	29.901 
07:55	74.9	74.9	74.9	90	71.8	0	0	---	0.00	29.901 
08:00	75.1	75.1	74.3	90	72.0	0	0	---	0.00	29.906 
08:05	75.3	75.3	74.7	90	72.2	0	0	---	0.00	29.906 
08:10	75.6	75.6	75.2	90	72.4	0	0	---	0.00	29.906 
08:15	75.8	75.8	75.8	89	72.3	0	0	---	0.00	29.913 
08:20	76.0	76.0	76.3	88	72.2	0	0	---	0.00	29.913 
08:25	76.3	76.3	76.8	88	72.5	0	0	---	0.00	29.913 
08:30	76.5	76.5	77.2	88	72.7	0	0	---	0.00	29.906 
08:35	76.5	76.5	77.2	88	72.7	0	0	---	0.00	29.906 
08:40	76.7	76.7	77.7	88	72.9	0	0	---	0.00	29.906 
08:45	76.8	76.8	77.9	87	72.6	0	0	---	0.00	29.903 
08:50	77.0	77.0	78.3	87	72.8	0	0	---	0.00	29.903 
08:55	77.2	77.2	78.8	86	72.7	0	0	---	0.00	29.903 
09:00	77.6	77.6	79.6	86	73.1	0	0	---	0.00	29.897 
09:05	77.7	77.7	79.8	85	72.8	0	1	292	0.00	29.897 
09:10	78.1	78.1	80.6	84	72.9	0	0	---	0.00	29.897 
09:15	78.6	78.6	81.6	83	73.0	0	1	292	0.00	29.895 
09:20	79.0	79.0	82.3	82	73.0	0	1	292	0.00	29.895 
09:25	79.4	79.4	83.1	81	73.0	0	1	292	0.00	29.895 
09:30	79.9	79.9	84.1	81	73.5	0	1	292	0.00	29.889 
09:35	80.5	80.5	85.1	79	73.4	0	1	292	0.00	29.889 
09:40	80.7	80.7	85.2	77	72.8	1	3	292	0.00	29.889 
09:45	80.9	80.9	85.7	77	73.0	0	1	292	0.00	29.891 
09:50	81.1	81.1	85.9	76	72.8	0	1	292	0.00	29.891 
09:55	81.1	81.1	85.9	76	72.8	0	0	---	0.00	29.891 
10:00	81.1	81.1	85.9	76	72.8	0	1	292	0.00	29.894 
10:05	81.1	81.1	85.7	75	72.4	0	1	292	0.00	29.894 
10:10	81.1	81.1	85.7	75	72.4	0	1	292	0.00	29.894 
10:15	81.1	81.1	85.7	75	72.4	0	1	292	0.00	29.891 
10:20	81.1	81.1	85.7	75	72.4	0	1	292	0.00	29.891 
10:25	81.2	81.2	85.9	75	72.5	0	1	292	0.00	29.891 
10:30	81.4	81.4	86.3	75	72.7	0	1	292	0.00	29.887 
10:35	81.6	81.6	86.7	75	72.9	0	1	292	0.00	29.887 
10:40	82.0	82.0	87.1	73	72.5	0	1	292	0.00	29.887 
10:45	82.2	82.2	87.5	73	72.7	0	2	292	0.00	29.879 
10:50	82.6	82.6	88.4	73	73.0	0	1	292	0.00	29.879 
10:55	83.0	83.0	88.9	72	73.0	0	1	292	0.00	29.879 
11:00	83.6	83.6	89.9	71	73.2	0	2	292	0.00	29.873 
11:05	84.0	84.0	90.2	69	72.7	0	2	292	0.00	29.873 
11:10	84.1	84.1	90.0	68	72.4	0	2	292	0.00	29.873 
11:15	84.3	84.3	90.5	68	72.6	1	3	270	0.00	29.870 
11:20	84.1	84.1	90.0	68	72.4	0	2	248	0.00	29.870 
11:25	84.1	84.1	90.4	69	72.8	0	2	248	0.00	29.870 
11:30	84.0	84.0	90.2	69	72.7	1	3	248	0.00	29.869 
11:35	84.0	84.0	90.2	69	72.7	0	2	248	0.00	29.869 
11:40	84.1	84.1	90.4	69	72.8	0	1	248	0.00	29.869 
11:45	84.1	84.1	90.7	70	73.2	0	2	248	0.00	29.873 
11:50	84.1	84.1	90.7	70	73.2	0	2	248	0.00	29.873 
11:55	84.1	84.1	90.7	70	73.2	1	2	248	0.00	29.873 
12:00	84.3	84.3	91.1	70	73.4	1	3	248	0.00	29.873 
12:05	84.7	84.7	92.0	70	73.8	0	2	248	0.00	29.873 
12:10	85.3	85.3	92.6	68	73.5	1	5	270	0.00	29.873 
12:15	85.5	85.5	93.1	68	73.7	1	3	270	0.00	29.871 
12:20	85.7	85.7	93.9	69	74.3	1	3	270	0.00	29.871 
12:25	85.9	85.9	94.0	68	74.1	1	3	270	0.00	29.871 
12:30	86.1	86.1	94.4	68	74.3	1	3	292	0.00	29.868 
12:35	86.3	86.3	94.1	66	73.6	1	4	315	0.00	29.868 
12:40	86.3	86.3	94.1	66	73.6	2	4	315	0.00	29.868 
12:45	86.1	86.1	94.0	67	73.8	1	4	338	0.00	29.858 
12:50	86.3	86.3	94.5	67	74.0	0	2	315	0.00	29.858 
12:55	86.7	86.7	95.0	66	73.9	1	2	315	0.00	29.858 
13:00	87.0	87.0	95.2	65	73.8	1	3	315	0.00	29.851 
13:05	87.2	87.2	95.7	65	74.0	0	2	248	0.00	29.851 
13:10	87.4	87.4	95.7	64	73.7	1	2	248	0.00	29.851 
13:15	88.0	88.0	97.1	64	74.3	0	2	248	0.00	29.840 
13:20	88.2	88.2	97.0	63	74.0	0	3	248	0.00	29.840 
13:25	88.6	88.6	96.0	59	72.4	2	5	248	0.00	29.840 
13:30	88.6	88.6	94.6	56	70.9	3	4	292	0.00	29.838 
13:35	88.8	88.8	95.4	57	71.6	1	5	292	0.00	29.838 
13:40	89.0	89.0	96.4	58	72.3	2	5	270	0.00	29.838 
13:45	89.0	89.0	95.4	56	71.2	2	6	270	0.00	29.823 
13:50	89.0	89.0	94.9	55	70.7	2	6	270	0.00	29.823 
13:55	89.3	89.3	95.5	55	71.0	1	4	292	0.00	29.823 
14:00	89.9	89.9	96.3	54	71.0	2	5	292	0.00	29.815 
14:05	90.3	90.3	95.6	51	69.7	2	5	292	0.00	29.815 
14:10	90.1	90.1	95.7	52	70.1	2	5	270	0.00	29.815 
14:15	89.9	89.9	96.3	54	71.0	1	5	270	0.00	29.810 
14:20	90.3	90.3	95.6	51	69.7	2	4	315	0.00	29.810 
14:25	90.1	90.1	95.2	51	69.5	2	5	270	0.00	29.810 
14:30	90.1	90.1	95.7	52	70.1	1	4	270	0.00	29.808 
14:35	90.3	90.3	97.1	54	71.4	1	3	292	0.00	29.808 
14:40	90.7	90.7	96.4	51	70.0	2	5	270	0.00	29.808 
14:45	91.0	91.0	96.5	50	69.7	2	6	270	0.00	29.810 
14:50	91.2	91.2	96.9	50	69.9	2	4	270	0.00	29.810 
14:55	91.2	91.2	96.9	50	69.9	2	4	292	0.00	29.810 
15:00	91.2	91.2	96.4	49	69.3	2	5	270	0.00	29.807 
15:05	91.2	91.2	96.4	49	69.3	2	6	270	0.00	29.807 
15:10	91.4	91.4	97.3	50	70.1	1	4	270	0.00	29.807 
15:15	91.8	91.8	98.1	50	70.5	1	3	248	0.00	29.803 
15:20	92.5	92.5	96.9	45	68.0	1	3	270	0.00	29.803 
15:25	92.9	92.9	98.2	46	69.0	2	5	270	0.00	29.803 
15:30	92.9	92.9	97.7	45	68.4	2	3	270	0.00	29.796 
15:35	92.9	92.9	97.7	45	68.4	1	4	270	0.00	29.796 
15:40	92.9	92.9	98.2	46	69.0	2	5	292	0.00	29.796 
15:45	92.7	92.7	97.8	46	68.8	2	5	270	0.00	29.791 
15:50	93.2	93.2	99.4	47	69.9	1	4	270	0.00	29.791 
15:55	93.8	93.8	100.0	46	69.8	1	4	270	0.00	29.791 
16:00	93.8	93.8	98.9	44	68.5	1	3	270	0.00	29.788 
16:05	93.6	93.6	98.5	44	68.4	1	3	90	0.00	29.788 
16:10	93.6	93.6	98.5	44	68.4	1	3	270	0.00	29.788 
16:15	93.4	93.4	97.6	43	67.5	2	5	270	0.00	29.783 
16:20	93.4	93.4	98.1	44	68.2	1	4	270	0.00	29.783 
16:25	94.0	94.0	98.7	43	68.0	2	4	270	0.00	29.783 
16:30	94.0	94.0	98.7	43	68.0	1	3	270	0.00	29.774 
16:35	94.0	94.0	98.7	43	68.0	1	3	270	0.00	29.774 
16:40	94.0	94.0	98.2	42	67.4	1	5	270	0.00	29.774 
16:45	94.0	94.0	98.2	42	67.4	1	3	338	0.00	29.768 
16:50	94.7	94.7	99.5	42	68.0	1	4	315	0.00	29.768 
16:55	94.9	94.9	98.8	40	66.7	1	4	68	0.00	29.768 
17:00	94.7	94.7	98.4	40	66.6	2	5	270	0.00	29.763 
17:05	94.5	94.5	98.1	40	66.4	2	5	90	0.00	29.763 
17:10	94.5	94.5	98.1	40	66.4	1	3	315	0.00	29.763 
17:15	94.3	94.3	97.7	40	66.2	1	4	270	0.00	29.759 
17:20	94.3	94.3	98.2	41	66.9	1	2	270	0.00	29.759 
17:25	94.5	94.5	98.6	41	67.1	1	3	270	0.00	29.759 
17:30	94.5	94.5	98.1	40	66.4	1	3	0	0.00	29.747 
17:35	94.5	94.5	97.1	38	64.9	2	6	292	0.00	29.747 
17:40	94.5	94.5	96.6	37	64.1	1	4	248	0.00	29.747 
17:45	94.3	94.3	96.3	37	64.0	2	5	270	0.00	29.745 
17:50	93.4	93.4	95.7	39	64.7	2	4	315	0.00	29.745 
17:55	93.2	93.2	96.2	41	65.9	0	2	315	0.00	29.745 
18:00	92.9	92.9	95.3	40	65.0	1	3	248	0.00	29.744 
18:05	92.5	92.5	95.5	42	66.0	1	3	315	0.00	29.744 
18:10	92.5	92.5	95.9	43	66.7	0	2	315	0.00	29.744 
18:15	92.5	92.5	95.9	43	66.7	1	4	315	0.00	29.741 
18:20	92.5	92.5	95.9	43	66.7	1	4	270	0.00	29.741 
18:25	92.3	92.3	95.6	43	66.5	1	4	248	0.00	29.741 
18:30	92.1	92.1	96.2	45	67.7	1	3	292	0.00	29.734 
18:35	92.1	92.1	96.7	46	68.3	1	3	292	0.00	29.734 
18:40	92.1	92.1	96.2	45	67.7	1	4	90	0.00	29.734 
18:45	91.8	91.8	95.6	45	67.4	1	3	338	0.00	29.730 
18:50	91.4	91.4	95.4	46	67.7	1	3	270	0.00	29.730 
18:55	91.2	91.2	95.0	46	67.5	1	4	248	0.00	29.730 
19:00	90.7	90.7	94.1	46	67.0	1	4	292	0.00	29.730 
19:05	90.5	90.5	93.8	46	66.8	1	4	270	0.00	29.730 
19:10	90.3	90.3	93.8	47	67.3	1	3	292	0.00	29.730 
19:15	90.3	90.3	93.4	46	66.7	0	2	248	0.00	29.717 
19:20	90.1	90.1	93.5	47	67.1	1	3	338	0.00	29.717 
19:25	90.1	90.1	93.1	46	66.5	2	5	270	0.00	29.717 
19:30	89.9	89.9	92.7	46	66.3	1	4	270	0.00	29.715 
19:35	90.1	90.1	93.5	47	67.1	0	2	270	0.00	29.715 
19:40	90.1	90.1	93.1	46	66.5	1	3	270	0.00	29.715 
19:45	90.1	90.1	92.7	45	65.9	1	3	270	0.00	29.704 
19:50	89.9	89.9	92.3	45	65.7	1	4	270	0.00	29.704 
19:55	89.9	89.9	92.7	46	66.3	1	3	270	0.00	29.704 
20:00	89.5	89.5	92.1	46	65.9	0	2	270	0.00	29.694 
20:05	89.3	89.3	92.1	47	66.4	0	3	270	0.00	29.694 
20:10	88.8	88.8	91.3	47	65.9	0	4	248	0.00	29.694 
20:15	88.6	88.6	90.6	46	65.1	1	4	248	0.00	29.685 
20:20	88.4	88.4	90.3	46	64.9	0	1	248	0.00	29.685 
20:25	88.2	88.2	90.0	46	64.8	0	2	248	0.00	29.685 
20:30	88.0	88.0	89.7	46	64.6	0	2	248	0.00	29.694 
20:35	87.8	87.8	89.4	46	64.4	0	1	248	0.00	29.694 
20:40	87.6	87.6	89.1	46	64.2	0	1	248	0.00	29.694 
20:45	87.4	87.4	88.8	46	64.0	0	2	248	0.00	29.704 
20:50	87.6	87.6	88.8	45	63.6	1	2	248	0.00	29.704 
20:55	87.6	87.6	88.8	45	63.6	0	2	248	0.00	29.704 
21:00	87.6	87.6	89.1	46	64.2	0	1	248	0.00	29.705 
21:05	87.6	87.6	88.8	45	63.6	1	2	248	0.00	29.705 
21:10	87.6	87.6	89.1	46	64.2	1	3	248	0.00	29.705 
21:15	87.6	87.6	88.8	45	63.6	1	3	248	0.00	29.704 
21:20	87.6	87.6	88.8	45	63.6	1	5	292	0.00	29.704 
21:25	87.6	87.6	88.8	45	63.6	1	4	270	0.00	29.704 
21:30	87.4	87.4	88.5	45	63.4	1	4	270	0.00	29.706 
21:35	87.2	87.2	88.5	46	63.9	1	5	270	0.00	29.706 
21:40	87.0	87.0	88.2	46	63.7	1	2	270	0.00	29.706 
21:45	86.7	86.7	87.8	46	63.4	1	4	270	0.00	29.709 
21:50	86.5	86.5	87.8	47	63.8	1	3	270	0.00	29.709 
21:55	86.5	86.5	88.1	48	64.4	1	4	270	0.00	29.709 
22:00	86.3	86.3	87.8	48	64.3	1	2	270	0.00	29.722 
22:05	86.3	86.3	87.8	48	64.3	0	2	270	0.00	29.722 
22:10	86.3	86.3	87.8	48	64.3	1	3	270	0.00	29.722 
22:15	86.3	86.3	87.8	48	64.3	0	2	270	0.00	29.755 
22:20	86.1	86.1	87.8	49	64.7	0	2	270	0.00	29.755 
22:25	86.1	86.1	87.8	49	64.7	0	2	270	0.00	29.755 
22:30	86.1	86.1	88.0	50	65.3	0	0	---	0.00	29.744 
22:35	85.9	85.9	87.7	50	65.1	0	1	270	0.00	29.744 
22:40	85.5	85.5	87.2	50	64.7	0	1	270	0.00	29.744 
22:45	85.5	85.5	87.2	50	64.7	0	0	---	0.00	29.738 
22:50	85.3	85.3	87.1	51	65.1	0	1	270	0.00	29.738 
22:55	85.1	85.1	87.1	52	65.5	0	0	---	0.00	29.738 
23:00	84.9	84.9	86.8	52	65.3	0	0	---	0.00	29.712 
23:05	84.7	84.7	86.8	53	65.6	0	0	---	0.00	29.712 
23:10	84.3	84.3	86.2	53	65.3	0	1	270	0.00	29.712 
23:15	84.3	84.3	86.5	54	65.8	0	1	270	0.00	29.701 
23:20	84.1	84.1	86.2	54	65.6	0	0	---	0.00	29.701 
23:25	84.0	84.0	86.3	55	66.1	0	2	270	0.00	29.701 
23:30	83.6	83.6	85.9	56	66.2	0	2	270	0.00	29.696 
23:35	83.2	83.2	85.8	58	66.9	1	2	270	0.00	29.696 
23:40	82.8	82.8	85.4	59	67.0	0	2	270	0.00	29.696 
23:45	82.4	82.4	85.2	61	67.6	0	2	270	0.00	29.688 
23:50	81.8	81.8	84.7	63	67.9	1	2	270	0.00	29.688 
23:55	81.6	81.6	84.4	63	67.8	0	1	270	0.00	29.688 

CoCoRaHS
IN-AL-39
A2 Web Hosting
Creative Commons License
GoDaddy
search engine by freefind advanced

loaded 2018-11-20 14:20:31 • last modified 2010-11-18 10:43:29
Privacy PolicyDisclaimer
• wx.awcolley.com is powered by PmWiki v.2002016 •
• all content (unless otherwise noted) © 2018 A W Colley